Time;durP1;ratioP1;P1;durP2;ratioP2;P2;SDS_P1;SDS_P2;PMS_P1;PMS_P2;Temp;Humidity;BMP_temperature;BMP_pressure;BME280_temperature;BME280_humidity;BME280_pressure;Samples;Min_cycle;Max_cycle;Signal;HPM_P1;HPM_P2
2023/03/11 00:00:59;;;;;;;;;13.50;11.75;;;;;5.41;65.90;100578.28;6277752;22;45245;-72
2023/03/11 00:03:26;;;;;;;;;18.25;16.00;;;;;5.49;66.03;100609.22;6278353;22;45240;-71
2023/03/11 00:05:53;;;;;;;;;13.50;13.25;;;;;5.22;66.17;100566.13;6278274;22;45207;-71
2023/03/11 00:08:20;;;;;;;;;17.00;11.50;;;;;5.26;66.46;100565.41;6276136;22;45824;-72
2023/03/11 00:10:49;;;;;;;;;14.50;13.00;;;;;5.43;65.94;100601.06;6277537;22;45481;-71
2023/03/11 00:13:15;;;;;;;;;13.25;13.25;;;;;5.44;66.70;100615.09;6277881;22;45215;-72
2023/03/11 00:15:43;;;;;;;;;13.50;12.75;;;;;5.53;66.05;100626.84;6278039;22;45256;-72
2023/03/11 00:18:08;;;;;;;;;18.75;16.00;;;;;5.39;66.02;100607.91;6276892;22;45331;-72
2023/03/11 00:20:36;;;;;;;;;17.00;15.25;;;;;5.39;65.42;100597.44;6277991;22;45254;-71
2023/03/11 00:23:03;;;;;;;;;14.25;14.00;;;;;5.55;66.36;100617.31;6277811;22;45318;-71
2023/03/11 00:25:30;;;;;;;;;15.00;14.00;;;;;5.25;65.41;100561.91;6276337;22;45217;-72
2023/03/11 00:27:56;;;;;;;;;16.00;16.00;;;;;5.45;65.85;100583.69;6277504;22;45239;-72
2023/03/11 00:30:22;;;;;;;;;23.75;17.25;;;;;5.52;66.56;100588.38;6277663;22;45396;-72
2023/03/11 00:32:49;;;;;;;;;21.75;18.25;;;;;5.52;65.87;100590.09;6275760;22;45237;-71
2023/03/11 00:35:18;;;;;;;;;21.50;18.25;;;;;5.48;66.42;100580.31;6278101;22;45236;-71
2023/03/11 00:37:46;;;;;;;;;14.25;13.00;;;;;5.45;65.94;100582.81;6277203;22;45398;-72
2023/03/11 00:40:18;;;;;;;;;14.25;12.00;;;;;5.29;66.01;100562.91;6277751;22;45558;-72
2023/03/11 00:42:43;;;;;;;;;7.00;7.00;;;;;5.30;65.48;100586.56;6277301;22;45982;-72
2023/03/11 00:45:09;;;;;;;;;11.50;10.50;;;;;5.35;64.64;100608.63;6275258;22;45224;-71
2023/03/11 00:47:35;;;;;;;;;6.75;6.00;;;;;5.43;65.50;100605.44;6274918;22;46250;-72
2023/03/11 00:50:00;;;;;;;;;6.00;6.00;;;;;5.25;64.59;100567.13;6275452;22;47056;-72
2023/03/11 00:52:27;;;;;;;;;8.75;8.00;;;;;5.26;65.26;100550.56;6277690;22;45183;-71
2023/03/11 00:54:53;;;;;;;;;8.50;7.00;;;;;5.45;65.69;100572.31;6277994;22;45244;-71
2023/03/11 00:57:18;;;;;;;;;11.25;11.25;;;;;5.39;65.06;100576.47;6277487;22;45363;-71
2023/03/11 00:59:43;;;;;;;;;10.50;10.50;;;;;5.46;65.54;100588.13;6275233;22;48210;-71
2023/03/11 01:02:09;;;;;;;;;10.25;8.00;;;;;5.20;65.90;100550.31;6277105;22;45298;-71
2023/03/11 01:04:34;;;;;;;;;12.00;10.25;;;;;5.39;65.98;100602.69;6278031;22;45227;-72
2023/03/11 01:06:59;;;;;;;;;10.25;8.50;;;;;5.02;66.03;100539.09;6275472;22;45797;-72
2023/03/11 01:09:25;;;;;;;;;9.50;7.75;;;;;5.41;65.18;100625.47;6277662;22;45485;-72
2023/03/11 01:11:50;;;;;;;;;8.50;8.00;;;;;5.24;65.32;100603.78;6277405;22;45254;-72
2023/03/11 01:14:16;;;;;;;;;8.50;7.25;;;;;5.25;65.25;100589.84;6278106;22;45385;-72
2023/03/11 01:16:42;;;;;;;;;9.50;7.75;;;;;5.17;65.53;100555.44;6273123;22;45852;-72
2023/03/11 01:19:07;;;;;;;;;11.25;9.75;;;;;5.43;65.67;100592.31;6277661;22;46206;-71
2023/03/11 01:21:32;;;;;;;;;8.50;8.25;;;;;5.44;65.48;100586.25;6277406;22;45201;-71
2023/03/11 01:23:58;;;;;;;;;6.75;6.00;;;;;5.27;65.42;100578.59;6275509;22;45204;-72
2023/03/11 01:26:23;;;;;;;;;7.00;6.00;;;;;5.16;64.49;100570.28;6277382;22;45441;-71
2023/03/11 01:28:48;;;;;;;;;6.75;6.50;;;;;5.27;64.70;100596.94;6277267;22;47610;-71
2023/03/11 01:31:14;;;;;;;;;6.75;6.00;;;;;5.35;64.99;100605.13;6276783;22;45163;-72
2023/03/11 01:33:39;;;;;;;;;2.75;2.75;;;;;5.34;64.96;100588.47;6278051;22;45101;-72
2023/03/11 01:36:05;;;;;;;;;5.00;3.75;;;;;5.28;64.30;100593.47;6278765;22;45164;-71
2023/03/11 01:38:30;;;;;;;;;6.00;6.00;;;;;5.24;65.05;100588.94;6278765;22;45214;-72
2023/03/11 01:40:56;;;;;;;;;6.50;4.25;;;;;5.26;64.62;100594.22;6278707;22;45235;-72
2023/03/11 01:43:43;;;;;;;;;5.50;3.00;;;;;5.39;65.68;100615.78;6250858;22;45233;-71
2023/03/11 01:46:25;;;;;;;;;6.75;5.25;;;;;5.41;65.65;100614.97;6278114;22;45472;-72
2023/03/11 01:48:53;;;;;;;;;3.00;3.00;;;;;5.41;65.39;100609.72;6278885;22;46545;-71
2023/03/11 01:51:40;;;;;;;;;4.25;3.00;;;;;5.38;65.64;100607.88;6275511;22;45373;-72
2023/03/11 01:54:13;;;;;;;;;7.50;5.50;;;;;5.29;64.85;100605.75;6278843;22;45330;-72
2023/03/11 01:56:40;;;;;;;;;5.50;3.75;;;;;5.34;65.59;100592.84;6276582;22;45423;-72
2023/03/11 01:59:07;;;;;;;;;7.25;7.00;;;;;5.28;64.83;100595.19;6278676;22;45344;-72
2023/03/11 02:01:34;;;;;;;;;6.25;6.25;;;;;5.20;64.08;100604.47;6278219;22;45219;-72
2023/03/11 02:04:02;;;;;;;;;5.50;3.00;;;;;5.09;64.68;100598.75;6303026;22;45286;-72
2023/03/11 02:06:29;;;;;;;;;6.00;6.00;;;;;5.10;65.41;100595.31;6278585;22;45240;-72
2023/03/11 02:08:55;;;;;;;;;6.00;6.00;;;;;5.03;65.44;100581.06;6278726;22;45307;-72
2023/03/11 02:11:25;;;;;;;;;8.00;8.00;;;;;5.22;65.27;100629.00;6276460;22;45208;-72
2023/03/11 02:13:51;;;;;;;;;11.50;7.00;;;;;5.10;65.03;100625.03;6278541;22;45188;-72
2023/03/11 02:16:17;;;;;;;;;7.00;7.00;;;;;5.20;65.39;100633.28;6278205;22;45411;-72
2023/03/11 02:18:43;;;;;;;;;5.75;5.75;;;;;5.06;64.77;100606.50;6277982;22;45215;-72
2023/03/11 02:21:08;;;;;;;;;7.50;7.00;;;;;5.27;65.41;100631.00;6278647;22;45312;-72
2023/03/11 02:23:49;;;;;;;;;6.00;6.00;;;;;5.20;65.81;100621.06;6278909;22;45344;-72
2023/03/11 02:26:28;;;;;;;;;9.25;7.00;;;;;5.21;65.38;100607.16;6278675;22;45204;-72
2023/03/11 02:28:55;;;;;;;;;8.00;8.00;;;;;5.10;66.11;100603.19;6278763;22;45276;-72
2023/03/11 02:31:21;;;;;;;;;10.00;7.00;;;;;4.79;66.11;100561.66;6275931;22;45253;-72
2023/03/11 02:33:49;;;;;;;;;8.00;8.00;;;;;5.13;66.27;100624.28;6277009;22;45423;-72
2023/03/11 02:36:37;;;;;;;;;14.00;9.75;;;;;5.25;65.10;100637.91;6278210;22;45359;-72
2023/03/11 02:39:03;;;;;;;;;13.00;10.50;;;;;5.15;66.28;100619.97;6302076;22;46840;-72
2023/03/11 02:41:31;;;;;;;;;15.50;11.00;;;;;4.86;66.54;100551.53;6277773;22;45350;-72
2023/03/11 02:43:58;;;;;;;;;12.25;8.50;;;;;4.80;65.89;100522.47;6276623;22;44684;-72
2023/03/11 02:46:24;;;;;;;;;12.75;10.00;;;;;5.20;66.17;100599.22;6277032;22;45161;-72
2023/03/11 02:48:51;;;;;;;;;15.50;13.75;;;;;4.99;65.98;100545.09;6250170;22;46955;-72
2023/03/11 02:51:16;;;;;;;;;20.50;16.75;;;;;5.07;66.60;100577.75;6275444;22;45228;-72
2023/03/11 02:53:48;;;;;;;;;21.75;18.00;;;;;5.02;67.18;100573.16;6276571;22;45157;-72
2023/03/11 02:56:13;;;;;;;;;17.25;15.00;;;;;5.07;66.44;100580.38;6278373;22;45169;-72
2023/03/11 02:58:39;;;;;;;;;23.50;17.50;;;;;5.02;67.05;100581.00;6276456;22;47258;-72
2023/03/11 03:01:04;;;;;;;;;19.25;15.50;;;;;4.99;66.49;100591.34;6277732;22;45243;-72
2023/03/11 03:03:30;;;;;;;;;27.00;19.00;;;;;4.93;66.62;100587.63;6276760;22;45151;-72
2023/03/11 03:05:55;;;;;;;;;23.75;21.75;;;;;4.97;66.69;100579.91;6275570;22;45189;-72
2023/03/11 03:08:20;;;;;;;;;24.75;23.00;;;;;4.97;66.48;100593.00;6278359;22;45152;-72
2023/03/11 03:10:46;;;;;;;;;26.00;20.25;;;;;4.90;66.17;100582.25;6278242;22;45189;-72
2023/03/11 03:13:11;;;;;;;;;29.75;25.25;;;;;4.94;66.65;100578.03;6278776;22;45148;-72
2023/03/11 03:15:37;;;;;;;;;25.25;20.75;;;;;4.92;66.41;100577.06;6277995;22;45410;-72
2023/03/11 03:18:02;;;;;;;;;28.75;26.00;;;;;5.01;66.85;100597.53;6277379;22;46392;-72
2023/03/11 03:20:28;;;;;;;;;23.50;22.75;;;;;5.01;67.14;100590.56;6278612;22;45089;-72
2023/03/11 03:22:53;;;;;;;;;25.25;21.00;;;;;4.94;66.71;100572.81;6276043;22;44701;-72
2023/03/11 03:25:18;;;;;;;;;35.75;25.75;;;;;5.06;66.36;100570.69;6278591;22;45594;-72
2023/03/11 03:27:44;;;;;;;;;22.00;21.00;;;;;4.97;66.52;100569.44;6278181;22;45432;-72
2023/03/11 03:30:10;;;;;;;;;23.75;20.25;;;;;5.01;67.30;100589.66;6276301;22;45272;-73
2023/03/11 03:32:36;;;;;;;;;22.50;19.00;;;;;4.82;66.30;100544.38;6276204;22;45310;-72
2023/03/11 03:35:02;;;;;;;;;25.50;21.75;;;;;4.85;66.89;100567.19;6278327;22;44725;-73
2023/03/11 03:37:31;;;;;;;;;22.75;21.00;;;;;4.96;66.94;100585.94;6277675;22;45342;-73
2023/03/11 03:39:56;;;;;;;;;22.75;20.75;;;;;4.70;66.58;100533.34;6278532;22;44582;-73
2023/03/11 03:42:23;;;;;;;;;31.25;25.25;;;;;4.82;67.17;100560.09;6278088;22;45582;-73
2023/03/11 03:44:49;;;;;;;;;26.00;22.25;;;;;4.88;67.13;100572.56;6277767;22;45232;-72
2023/03/11 03:47:14;;;;;;;;;24.75;16.50;;;;;4.94;67.00;100585.91;6275383;22;46215;-72
2023/03/11 03:49:40;;;;;;;;;22.00;20.00;;;;;4.80;66.64;100556.50;6276116;22;45315;-72
2023/03/11 03:52:06;;;;;;;;;27.75;18.00;;;;;4.91;66.83;100583.16;6278349;22;45264;-73
2023/03/11 03:54:31;;;;;;;;;23.00;19.50;;;;;4.87;66.72;100581.22;6276099;22;46175;-72
2023/03/11 03:56:57;;;;;;;;;20.00;18.25;;;;;4.93;67.45;100598.09;6277395;22;45942;-72
2023/03/11 03:59:22;;;;;;;;;22.75;17.50;;;;;4.70;66.67;100572.63;6276082;22;45247;-72
2023/03/11 04:01:48;;;;;;;;;22.75;17.50;;;;;4.83;67.10;100600.25;6277671;22;45300;-72
2023/03/11 04:04:13;;;;;;;;;20.25;20.25;;;;;4.83;67.53;100590.66;6278305;22;45521;-72
2023/03/11 04:06:39;;;;;;;;;14.50;11.75;;;;;4.78;67.60;100602.66;6277816;22;46641;-72
2023/03/11 04:09:04;;;;;;;;;18.00;13.25;;;;;4.74;67.16;100592.88;6278332;22;45156;-72
2023/03/11 04:11:31;;;;;;;;;19.75;16.50;;;;;4.77;67.32;100598.25;6278359;22;45716;-72
2023/03/11 04:13:56;;;;;;;;;21.00;18.25;;;;;4.67;67.38;100586.47;6278174;22;45344;-72
2023/03/11 04:16:23;;;;;;;;;21.00;16.25;;;;;4.78;68.13;100588.69;6277299;22;45613;-73
2023/03/11 04:18:48;;;;;;;;;16.25;11.50;;;;;4.80;67.61;100587.91;6277723;22;45242;-72
2023/03/11 04:21:14;;;;;;;;;18.00;17.25;;;;;4.86;67.68;100597.75;6278116;22;45184;-72
2023/03/11 04:23:39;;;;;;;;;18.25;17.00;;;;;4.86;67.51;100603.00;6277874;22;44778;-72
2023/03/11 04:26:05;;;;;;;;;19.50;17.25;;;;;4.72;68.10;100576.22;6277540;22;45300;-72
2023/03/11 04:28:30;;;;;;;;;17.00;17.00;;;;;4.77;67.58;100593.03;6275676;22;45226;-72
2023/03/11 04:30:56;;;;;;;;;19.50;19.50;;;;;4.74;67.75;100586.75;6277348;22;45576;-72
2023/03/11 04:33:21;;;;;;;;;16.50;15.25;;;;;4.79;68.04;100595.69;6277928;22;45794;-71
2023/03/11 04:35:46;;;;;;;;;12.75;12.00;;;;;4.81;67.90;100609.75;6277908;22;45861;-72
2023/03/11 04:38:12;;;;;;;;;12.50;11.00;;;;;4.80;67.51;100619.34;6277801;22;45181;-72
2023/03/11 04:40:38;;;;;;;;;13.75;7.25;;;;;4.82;67.35;100620.31;6278428;22;45251;-72
2023/03/11 04:43:03;;;;;;;;;14.00;11.75;;;;;4.69;66.98;100605.75;6275413;22;45908;-72
2023/03/11 04:45:29;;;;;;;;;8.50;8.00;;;;;4.64;67.88;100614.25;6277671;22;45294;-72
2023/03/11 04:47:54;;;;;;;;;7.50;6.00;;;;;4.67;67.65;100632.69;6275383;22;45177;-72
2023/03/11 04:50:20;;;;;;;;;2.00;2.00;;;;;4.59;67.06;100614.03;6275947;22;45091;-72
2023/03/11 04:52:46;;;;;;;;;6.50;2.75;;;;;4.63;67.73;100610.72;6277634;22;45166;-73
2023/03/11 04:55:14;;;;;;;;;12.50;7.50;;;;;4.67;67.04;100617.00;6277940;22;45569;-72
2023/03/11 04:57:41;;;;;;;;;6.50;6.00;;;;;4.51;67.87;100599.72;6277355;22;45333;-72
2023/03/11 05:00:10;;;;;;;;;10.00;6.75;;;;;4.64;67.36;100630.84;6276016;22;45261;-72
2023/03/11 05:02:37;;;;;;;;;5.50;5.00;;;;;4.56;67.84;100611.28;6277673;22;45218;-72
2023/03/11 05:05:02;;;;;;;;;8.25;7.00;;;;;4.65;67.44;100618.63;6277819;22;45457;-72
2023/03/11 05:07:28;;;;;;;;;10.50;6.50;;;;;4.64;67.56;100619.47;6277156;22;45247;-72
2023/03/11 05:09:53;;;;;;;;;8.00;6.50;;;;;4.62;68.06;100621.13;6277550;22;45140;-72
2023/03/11 05:12:18;;;;;;;;;7.50;6.50;;;;;4.58;67.87;100632.28;6277201;22;52862;-72
2023/03/11 05:14:44;;;;;;;;;10.50;8.25;;;;;4.61;67.35;100642.91;6277275;22;45260;-72
2023/03/11 05:17:11;;;;;;;;;11.00;7.25;;;;;4.51;67.98;100638.97;6276379;22;45244;-73
2023/03/11 05:19:36;;;;;;;;;10.50;5.00;;;;;4.43;67.81;100636.00;6275855;22;45261;-72
2023/03/11 05:22:03;;;;;;;;;6.75;5.75;;;;;4.47;68.43;100640.53;6276933;22;45348;-72
2023/03/11 05:24:29;;;;;;;;;6.50;6.00;;;;;4.51;67.99;100640.69;6275671;22;46413;-73
2023/03/11 07:57:50;;;;;;;;;7.00;5.50;;;;;5.48;65.58;100742.84;6206412;22;45354;-72
2023/03/11 08:00:16;;;;;;;;;8.50;8.00;;;;;5.45;66.23;100722.63;6276185;22;46136;-72
2023/03/11 08:02:42;;;;;;;;;7.25;6.00;;;;;5.55;65.85;100747.53;6276207;22;45278;-72
2023/03/11 08:05:07;;;;;;;;;8.00;8.00;;;;;5.61;64.07;100758.28;6278257;22;45258;-73
2023/03/11 08:07:33;;;;;;;;;6.00;5.75;;;;;5.73;64.47;100771.91;6277602;22;45302;-72
2023/03/11 08:09:58;;;;;;;;;2.75;2.75;;;;;5.77;64.26;100778.16;6277419;22;46648;-72
2023/03/11 08:12:23;;;;;;;;;5.00;5.00;;;;;5.82;63.98;100776.66;6277647;22;45247;-73
2023/03/11 08:14:49;;;;;;;;;4.50;4.00;;;;;5.81;62.39;100777.50;6277762;22;45277;-72
2023/03/11 08:17:15;;;;;;;;;6.75;5.75;;;;;5.89;61.63;100788.31;6277151;22;46599;-73
2023/03/11 08:19:41;;;;;;;;;8.00;4.25;;;;;5.87;64.53;100764.63;6277707;22;45350;-73
2023/03/11 08:22:06;;;;;;;;;30.50;26.00;;;;;6.06;62.60;100774.22;6276784;22;44995;-73
2023/03/11 08:24:32;;;;;;;;;8.25;5.75;;;;;6.07;63.24;100752.38;6277489;22;45223;-73
2023/03/11 08:26:57;;;;;;;;;8.00;7.00;;;;;6.12;62.29;100757.84;6277580;22;45456;-73
2023/03/11 08:29:23;;;;;;;;;21.00;18.75;;;;;6.20;63.71;100753.78;6277177;22;45132;-73
2023/03/11 08:31:49;;;;;;;;;16.00;16.00;;;;;6.25;61.41;100750.53;6277334;22;44656;-73
2023/03/11 08:34:14;;;;;;;;;15.25;10.50;;;;;6.35;62.79;100751.78;6277832;22;45215;-73
2023/03/11 08:36:40;;;;;;;;;15.75;8.75;;;;;6.51;62.94;100761.19;6277737;22;45409;-73
2023/03/11 08:39:06;;;;;;;;;6.00;6.00;;;;;6.60;61.55;100750.16;6277572;22;45588;-73
2023/03/11 08:41:31;;;;;;;;;8.50;7.50;;;;;6.66;61.86;100743.38;6278039;22;45248;-73
2023/03/11 08:43:57;;;;;;;;;8.00;6.00;;;;;6.73;60.35;100747.16;6275751;22;45300;-73
2023/03/11 08:46:31;;;;;;;;;22.75;19.75;;;;;6.83;62.25;100757.19;6278039;22;45257;-74
2023/03/11 08:48:57;;;;;;;;;7.25;7.00;;;;;6.98;62.47;100767.41;6277393;22;45298;-73
2023/03/11 08:51:24;;;;;;;;;13.00;10.25;;;;;7.12;59.80;100768.81;6276944;22;45294;-73
2023/03/11 08:53:51;;;;;;;;;9.00;7.50;;;;;7.26;62.26;100779.84;6276943;22;45243;-73
2023/03/11 08:56:17;;;;;;;;;7.00;6.00;;;;;7.34;60.75;100770.50;6277776;22;45574;-74
2023/03/11 08:58:42;;;;;;;;;9.00;8.00;;;;;7.31;60.80;100764.22;6276423;22;45233;-73
2023/03/11 09:01:09;;;;;;;;;7.75;7.00;;;;;7.35;60.36;100774.03;6277726;22;45071;-72
2023/03/11 09:03:35;;;;;;;;;7.50;7.25;;;;;7.39;61.61;100774.22;6275494;22;45278;-74
2023/03/11 09:06:03;;;;;;;;;10.25;9.00;;;;;7.29;58.77;100766.81;6277416;22;45283;-73
2023/03/11 09:08:29;;;;;;;;;9.25;8.00;;;;;7.30;59.93;100762.44;6275373;22;47236;-74
2023/03/11 09:10:54;;;;;;;;;9.00;9.00;;;;;7.41;60.05;100753.22;6277124;22;45196;-74
2023/03/11 09:13:20;;;;;;;;;12.75;8.00;;;;;7.62;60.43;100763.63;6274815;22;45260;-73
2023/03/11 09:15:47;;;;;;;;;8.25;6.75;;;;;7.56;59.49;100743.25;6275482;22;46322;-73
2023/03/11 09:18:13;;;;;;;;;7.00;7.00;;;;;7.68;59.51;100752.44;6277112;22;46588;-73
2023/03/11 09:20:39;;;;;;;;;4.50;4.50;;;;;7.88;58.21;100775.06;6277013;22;45270;-73
2023/03/11 09:23:05;;;;;;;;;4.50;4.50;;;;;7.80;54.80;100779.16;6277514;22;45254;-74
2023/03/11 09:25:30;;;;;;;;;5.25;5.25;;;;;7.91;57.00;100769.91;6275732;22;45487;-74
2023/03/11 09:27:56;;;;;;;;;8.75;7.50;;;;;7.93;55.21;100772.59;6273912;22;47171;-74
2023/03/11 09:30:21;;;;;;;;;8.50;7.75;;;;;7.94;58.80;100769.09;6277478;22;45255;-74
2023/03/11 09:32:46;;;;;;;;;8.75;7.75;;;;;7.87;56.31;100773.28;6277103;22;45331;-73
2023/03/11 09:35:12;;;;;;;;;8.00;7.00;;;;;7.86;57.13;100758.31;6277435;22;45263;-73
2023/03/11 09:37:37;;;;;;;;;9.00;8.00;;;;;7.68;56.50;100732.25;6277005;22;45208;-73
2023/03/11 09:40:03;;;;;;;;;7.00;5.00;;;;;8.06;56.66;100762.50;6276579;22;52416;-74
2023/03/11 09:42:54;;;;;;;;;8.00;8.00;;;;;8.23;56.63;100771.00;6276887;22;45394;-74
2023/03/11 09:45:33;;;;;;;;;6.00;5.50;;;;;8.37;56.08;100776.69;6272012;22;44605;-74
2023/03/11 09:48:31;;;;;;;;;16.00;9.75;;;;;8.37;56.23;100783.69;6274347;22;46504;-74
2023/03/11 09:51:09;;;;;;;;;15.50;15.50;;;;;8.42;55.84;100777.78;6267548;22;45654;-74
2023/03/11 09:53:40;;;;;;;;;25.25;22.25;;;;;8.46;57.00;100777.03;6274508;22;45207;-74
2023/03/11 09:56:09;;;;;;;;;24.50;24.00;;;;;8.55;56.54;100780.81;6278484;22;44758;-75
2023/03/11 09:58:57;;;;;;;;;9.00;8.50;;;;;8.64;55.85;100789.91;6277467;22;45238;-74
2023/03/11 10:01:32;;;;;;;;;10.25;6.25;;;;;8.66;55.77;100782.94;6278627;22;45321;-74
2023/03/11 10:04:12;;;;;;;;;9.75;8.75;;;;;8.67;55.51;100782.09;6277721;22;45275;-74
2023/03/11 10:06:40;;;;;;;;;10.75;9.50;;;;;8.70;57.45;100761.09;6278163;22;45355;-74
2023/03/11 10:09:29;;;;;;;;;51.50;43.50;;;;;8.91;54.27;100787.25;6301728;22;46289;-74
2023/03/11 10:12:00;;;;;;;;;12.50;10.25;;;;;8.93;54.52;100793.47;6277139;22;45266;-74
2023/03/11 10:14:57;;;;;;;;;15.00;14.75;;;;;8.98;56.10;100785.69;6276901;22;45094;-74
2023/03/11 10:17:41;;;;;;;;;9.25;9.25;;;;;9.16;55.22;100809.97;6268062;22;45381;-76
2023/03/11 10:20:26;;;;;;;;;10.25;10.00;;;;;9.22;57.04;100804.00;6277726;22;45294;-72
2023/03/11 10:22:52;;;;;;;;;11.25;10.50;;;;;9.22;53.64;100803.09;6212941;22;45264;-72
2023/03/11 10:25:24;;;;;;;;;10.25;9.00;;;;;9.20;53.95;100797.78;6275741;22;45293;-72
2023/03/11 10:27:57;;;;;;;;;9.75;9.75;;;;;9.18;53.13;100791.53;6276863;22;45401;-72
2023/03/11 10:30:23;;;;;;;;;11.00;10.25;;;;;9.31;53.05;100796.34;6277961;22;45267;-72
2023/03/11 10:32:59;;;;;;;;;8.00;8.00;;;;;9.45;53.27;100795.84;6277233;22;45232;-73
2023/03/11 10:35:36;;;;;;;;;5.75;5.75;;;;;9.49;52.88;100792.44;6278214;22;45241;-74
2023/03/11 10:38:21;;;;;;;;;18.25;15.50;;;;;9.45;55.00;100802.03;6277348;22;45313;-76
2023/03/11 10:40:52;;;;;;;;;10.50;6.25;;;;;9.47;55.05;100794.16;6277940;22;45291;-74
2023/03/11 10:43:24;;;;;;;;;11.25;8.50;;;;;9.41;52.34;100790.50;6277714;22;44680;-74
2023/03/11 10:45:51;;;;;;;;;51.75;40.75;;;;;9.47;52.74;100791.53;6277431;22;45204;-76
2023/03/11 10:48:18;;;;;;;;;15.25;12.00;;;;;9.57;53.16;100801.47;6277236;22;46700;-76
2023/03/11 10:51:00;;;;;;;;;18.50;17.00;;;;;9.66;54.91;100801.72;6277617;22;45311;-74
2023/03/11 10:53:25;;;;;;;;;14.50;14.50;;;;;9.66;50.79;100785.00;6277914;22;45225;-75
2023/03/11 10:55:53;;;;;;;;;19.25;15.50;;;;;9.78;53.03;100791.53;6277867;22;45125;-75
2023/03/11 10:58:24;;;;;;;;;10.00;10.00;;;;;9.88;51.51;100795.28;6276660;22;45208;-75
2023/03/11 11:01:09;;;;;;;;;14.25;13.25;;;;;9.96;53.02;100790.22;6277464;22;45923;-75
2023/03/11 11:03:35;;;;;;;;;10.25;8.00;;;;;9.93;49.91;100774.31;6276665;22;45226;-75
2023/03/11 11:06:04;;;;;;;;;9.00;9.00;;;;;10.14;54.53;100774.88;6277235;22;45704;-75
2023/03/11 11:08:30;;;;;;;;;9.00;7.25;;;;;10.00;51.34;100786.81;6277370;22;45343;-75
2023/03/11 11:10:59;;;;;;;;;8.00;7.75;;;;;10.16;51.75;100782.81;6278723;22;46062;-75
2023/03/11 11:13:29;;;;;;;;;15.75;13.25;;;;;10.17;52.49;100779.34;6277317;22;45270;-74
2023/03/11 11:16:00;;;;;;;;;24.00;20.75;;;;;10.34;52.30;100782.44;6279983;22;45135;-75
2023/03/11 11:18:28;;;;;;;;;12.25;10.75;;;;;10.45;51.48;100788.88;6278389;22;45233;-74
2023/03/11 11:20:59;;;;;;;;;10.25;9.00;;;;;10.25;48.74;100786.59;6277903;22;45436;-76
2023/03/11 11:23:45;;;;;;;;;10.00;7.75;;;;;10.39;51.33;100770.22;6277847;22;45196;-74
2023/03/11 11:26:25;;;;;;;;;10.25;8.25;;;;;10.60;52.64;100764.56;6278130;22;45228;-75
2023/03/11 11:29:08;;;;;;;;;10.00;10.00;;;;;10.73;53.17;100782.50;6277093;22;45164;-74
2023/03/11 11:31:34;;;;;;;;;10.50;6.75;;;;;10.82;49.23;100782.72;6277709;22;45106;-76
2023/03/11 11:34:00;;;;;;;;;10.25;6.00;;;;;10.87;48.99;100759.91;6277254;22;45255;-75
2023/03/11 11:36:32;;;;;;;;;9.00;8.00;;;;;11.14;50.66;100777.22;6276269;22;45236;-74
2023/03/11 11:39:03;;;;;;;;;9.75;7.00;;;;;11.35;49.40;100759.19;6277282;22;45418;-75
2023/03/11 11:41:31;;;;;;;;;9.50;7.00;;;;;11.47;50.45;100762.94;6277853;22;45342;-75
2023/03/11 11:44:04;;;;;;;;;15.25;14.00;;;;;11.61;49.04;100757.03;6276806;22;45172;-75
2023/03/11 11:46:40;;;;;;;;;7.00;7.00;;;;;11.72;48.89;100748.41;6275942;22;45291;-74
2023/03/11 11:49:22;;;;;;;;;6.00;6.00;;;;;11.85;47.45;100737.19;6277038;22;45425;-77
2023/03/11 11:51:56;;;;;;;;;6.75;6.25;;;;;12.05;49.14;100750.81;6277633;22;46247;-74
2023/03/11 11:54:43;;;;;;;;;2.75;2.75;;;;;12.22;47.99;100752.00;6278055;22;45311;-75
2023/03/11 11:57:13;;;;;;;;;13.00;9.50;;;;;12.21;48.18;100733.41;6277153;22;45239;-74
2023/03/11 11:59:39;;;;;;;;;9.50;8.75;;;;;12.21;46.25;100736.97;6277034;22;45176;-76
2023/03/11 12:02:42;;;;;;;;;7.25;7.00;;;;;12.28;49.09;100752.09;6277361;22;45728;-75
2023/03/11 12:05:13;;;;;;;;;49.50;36.75;;;;;12.40;45.92;100759.34;6277801;22;45160;-75
2023/03/11 12:08:00;;;;;;;;;27.00;26.25;;;;;12.40;46.50;100759.34;6274764;22;45393;-75
2023/03/11 12:10:32;;;;;;;;;17.00;15.75;;;;;12.37;44.97;100746.03;6277344;22;45531;-75
2023/03/11 12:13:39;;;;;;;;;14.25;14.25;;;;;12.42;47.59;100739.06;6276802;22;45304;-75
2023/03/11 12:16:37;;;;;;;;;7.00;7.00;;;;;12.28;44.78;100740.59;6277593;22;45286;-74
2023/03/11 12:19:06;;;;;;;;;12.25;12.25;;;;;12.32;46.88;100746.00;6277228;22;45175;-75
2023/03/11 12:21:50;;;;;;;;;19.75;16.75;;;;;12.20;43.46;100750.19;6278200;22;44736;-75
2023/03/11 12:24:55;;;;;;;;;7.50;6.50;;;;;12.08;44.61;100749.09;6278136;22;45361;-74
2023/03/11 12:27:26;;;;;;;;;15.25;13.00;;;;;12.12;46.78;100734.16;6274596;22;44719;-74
2023/03/11 12:29:56;;;;;;;;;7.75;7.00;;;;;12.13;44.91;100740.34;6277329;22;45183;-74
2023/03/11 12:32:28;;;;;;;;;9.00;6.25;;;;;12.14;45.35;100723.59;6277111;22;45245;-73
2023/03/11 12:34:53;;;;;;;;;10.00;7.00;;;;;12.04;44.88;100709.28;6277256;22;45557;-74
2023/03/11 12:37:22;;;;;;;;;9.75;9.00;;;;;12.13;47.22;100725.34;6277381;22;45271;-75
2023/03/11 12:39:47;;;;;;;;;8.50;7.00;;;;;11.94;43.56;100734.72;6277420;22;45319;-74
2023/03/11 12:42:12;;;;;;;;;9.25;8.00;;;;;11.93;45.32;100734.69;6276525;22;45418;-75
2023/03/11 12:44:39;;;;;;;;;9.50;8.50;;;;;11.94;44.51;100725.91;6277293;22;45259;-75
2023/03/11 12:47:07;;;;;;;;;14.00;12.00;;;;;11.97;44.47;100732.13;6277235;22;45222;-75
2023/03/11 12:49:39;;;;;;;;;8.50;7.25;;;;;11.78;46.32;100736.16;6277560;22;45169;-74
2023/03/11 12:52:07;;;;;;;;;5.00;4.75;;;;;11.80;47.19;100731.81;6276991;22;45358;-75
2023/03/11 12:54:42;;;;;;;;;19.25;17.00;;;;;11.61;46.33;100727.91;6276980;22;45445;-74
2023/03/11 12:57:16;;;;;;;;;7.25;6.00;;;;;11.66;46.77;100725.38;6276339;22;45219;-74
2023/03/11 13:00:29;;;;;;;;;8.25;8.00;;;;;11.74;45.81;100717.56;6274777;22;45216;-75
2023/03/11 13:03:12;;;;;;;;;30.25;28.00;;;;;11.96;45.94;100722.41;6219509;22;45398;-75
2023/03/11 13:05:59;;;;;;;;;5.00;4.50;;;;;12.07;45.43;100718.19;6276631;22;45213;-75
2023/03/11 13:08:33;;;;;;;;;9.50;8.75;;;;;12.10;44.73;100714.72;6276461;22;45313;-75
2023/03/11 13:10:58;;;;;;;;;12.25;11.75;;;;;11.98;45.52;100687.97;6277274;22;45346;-74
2023/03/11 13:13:23;;;;;;;;;7.00;6.00;;;;;12.22;45.81;100714.91;6276532;22;45287;-75
2023/03/11 13:15:50;;;;;;;;;7.75;6.00;;;;;12.27;44.73;100713.22;6276948;22;45342;-74
2023/03/11 13:18:23;;;;;;;;;6.00;6.00;;;;;12.19;45.53;100711.31;6277133;22;45239;-75
2023/03/11 13:20:54;;;;;;;;;5.25;5.25;;;;;12.13;47.16;100708.53;6277414;22;45235;-75
2023/03/11 13:23:26;;;;;;;;;7.00;7.00;;;;;12.11;45.65;100702.34;6276695;22;45183;-74
2023/03/11 13:25:54;;;;;;;;;6.25;6.00;;;;;12.15;42.61;100701.50;6274493;22;46828;-74
2023/03/11 13:28:50;;;;;;;;;6.75;6.00;;;;;12.12;46.04;100699.69;6275979;22;45159;-75
2023/03/11 13:31:38;;;;;;;;;5.00;5.00;;;;;12.16;43.39;100701.56;6278119;22;45220;-74
2023/03/11 13:34:36;;;;;;;;;5.50;5.00;;;;;12.14;46.02;100697.09;6277339;22;45299;-74
2023/03/11 13:37:20;;;;;;;;;6.00;5.00;;;;;12.09;44.90;100705.84;6240548;22;46234;-74
2023/03/11 13:39:48;;;;;;;;;7.00;6.00;;;;;12.07;44.85;100707.59;6277672;22;45327;-75
2023/03/11 13:42:32;;;;;;;;;5.25;4.75;;;;;12.00;47.00;100708.34;6276219;22;45429;-75
2023/03/11 13:44:58;;;;;;;;;5.50;5.50;;;;;11.93;45.28;100703.81;6276552;22;45508;-75
2023/03/11 13:47:25;;;;;;;;;7.25;6.25;;;;;11.90;45.89;100711.69;6277422;22;45122;-75
2023/03/11 13:50:12;;;;;;;;;8.00;5.00;;;;;11.80;44.10;100704.44;6276948;22;45270;-74
2023/03/11 13:52:46;;;;;;;;;7.25;6.50;;;;;11.92;44.98;100723.22;6276686;22;45280;-75
2023/03/11 13:55:24;;;;;;;;;4.00;3.75;;;;;11.98;45.79;100730.38;6278477;22;45246;-74
2023/03/11 13:57:54;;;;;;;;;5.50;5.25;;;;;11.91;44.75;100716.13;6277064;22;45282;-75
2023/03/11 14:00:27;;;;;;;;;6.50;5.00;;;;;11.98;42.95;100725.06;6276324;22;45182;-75
2023/03/11 14:02:54;;;;;;;;;8.00;5.00;;;;;11.91;43.16;100726.75;6278051;22;45227;-74
2023/03/11 14:05:44;;;;;;;;;6.00;6.00;;;;;11.83;45.34;100712.44;6276196;22;45989;-75
2023/03/11 14:08:22;;;;;;;;;8.00;6.00;;;;;11.91;45.58;100717.91;6277973;22;45234;-75